Terminal Aerodrome Forecast
Issued by NWS Sioux Falls, SD

Home | Current Version | Previous Version | Graphics & Text | Print | Product List | Glossary Off
Versions: 1 2 3 4 5 6 7 8 9 10 11 12 13 14

297
FTUS43 KFSD 241741
TAFFSD
TAF
KFSD 241741Z 2418/2518 20006KT P6SM FEW250
     FM242300 14005KT P6SM SCT150
     FM250500 13007KT P6SM BKN090
     FM250800 12006KT P6SM SHRA VCTS BKN040CB OVC090
     FM251200 13007KT 6SM SHRA VCTS OVC015CB
     FM251500 16010KT P6SM SCT025 BKN250=

USA.gov is the U.S. government's official web portal to all federal, state and local government web resources and services.